EKYT/AAL METAR and TAF weather

Enter ICAO airport designator
Station Type Date Time Source
EKYT METAR 2018/12/13 15:20 UTC NOAA

EKYT 131520Z AUTO 04006KT 9999 OVC048/// 02/M00 Q1030


Station Type Date Time Source
EKYT Decoded METAR 2018/12/13 15:20 UTC NOAA

Aalborg, Denmark (EKYT) 57-06N 009-51E 13M
Dec 13, 2018 - 10:20 AM EST / 2018.12.13 1520 UTC
Wind: from the NE (040 degrees) at 7 MPH (6 KT):0
Visibility: greater than 7 mile(s):0
Sky conditions: overcast
Temperature: 35 F (2 C)
Windchill: 28 F (-2 C):1
Dew Point: 32 F (0 C)
Relative Humidity: 86%
Pressure (altimeter): 30.42 in. Hg (1030 hPa)
ob: EKYT 131520Z AUTO 04006KT 9999 OVC048/// 02/M00 Q1030
cycle: 15

Station Type Date Time Source
EKYT TAF 2018/12/13 15:35 UTC NOAA

TAF EKYT 131417Z 1315/1412 07008KT 9999 SCT012 BKN018
TEMPO 1315/1412 5000 -SHSNRA BKN008 BKN012TCU


Example: see airport list